Time;durP1;ratioP1;P1;durP2;ratioP2;P2;SDS_P1;SDS_P2;PMS_P1;PMS_P2;Temp;Humidity;BMP_temperature;BMP_pressure;BME280_temperature;BME280_humidity;BME280_pressure;Samples;Min_cycle;Max_cycle;Signal;HPM_P1;HPM_P2
2021/12/07 00:00:40;;;;;;;27.33;14.30;;;11.50;48.50;;;;;;5052702;28;20474;-86
2021/12/07 00:03:08;;;;;;;24.93;14.80;;;11.50;48.50;;;;;;5053092;28;20466;-86
2021/12/07 00:05:37;;;;;;;29.73;13.90;;;11.50;48.50;;;;;;5052963;28;20446;-86
2021/12/07 00:08:06;;;;;;;29.03;14.30;;;11.50;48.50;;;;;;5054824;28;20431;-86
2021/12/07 00:10:38;;;;;;;28.33;14.87;;;11.50;48.40;;;;;;5056191;28;20426;-86
2021/12/07 00:13:06;;;;;;;26.70;14.87;;;11.50;48.40;;;;;;5055642;28;20512;-86
2021/12/07 00:15:35;;;;;;;30.83;15.50;;;11.50;48.40;;;;;;5053450;28;20474;-87
2021/12/07 00:18:03;;;;;;;26.73;14.33;;;11.50;48.40;;;;;;5052149;28;20458;-86
2021/12/07 00:20:31;;;;;;;28.30;14.30;;;11.50;48.20;;;;;;5052308;28;20427;-86
2021/12/07 00:23:00;;;;;;;33.73;15.83;;;11.50;48.50;;;;;;5053680;28;20500;-87
2021/12/07 00:25:30;;;;;;;27.30;15.00;;;11.50;48.40;;;;;;5050986;28;20477;-86
2021/12/07 00:27:58;;;;;;;25.63;14.50;;;11.50;48.60;;;;;;5052262;28;20470;-86
2021/12/07 00:30:31;;;;;;;28.43;14.83;;;11.60;48.60;;;;;;5052912;28;20485;-86
2021/12/07 00:33:10;;;;;;;22.40;12.60;;;11.60;48.60;;;;;;5053545;28;20474;-86
2021/12/07 00:35:39;;;;;;;23.97;14.17;;;11.60;48.20;;;;;;5054302;28;21023;-86
2021/12/07 00:38:13;;;;;;;28.13;14.50;;;11.60;48.40;;;;;;5055576;28;20427;-86
2021/12/07 00:40:43;;;;;;;33.60;15.70;;;11.60;48.40;;;;;;5053495;28;20484;-86
2021/12/07 00:43:11;;;;;;;30.97;14.13;;;11.60;48.40;;;;;;5051282;28;20493;-86
2021/12/07 00:45:42;;;;;;;22.80;13.93;;;11.60;48.60;;;;;;5053634;28;20434;-86
2021/12/07 00:48:09;;;;;;;27.13;15.50;;;11.60;48.40;;;;;;5056478;28;20561;-86
2021/12/07 00:50:38;;;;;;;24.37;14.77;;;11.60;48.40;;;;;;5057401;28;20514;-86
2021/12/07 00:53:06;;;;;;;30.17;13.90;;;11.60;48.50;;;;;;5055381;28;20552;-85
2021/12/07 00:55:36;;;;;;;27.73;15.27;;;11.60;48.40;;;;;;5058174;28;20470;-86
2021/12/07 00:58:13;;;;;;;24.93;13.87;;;11.60;48.50;;;;;;5051230;28;20538;-87
2021/12/07 01:00:41;;;;;;;26.23;14.53;;;11.60;48.40;;;;;;5049083;28;20450;-86
2021/12/07 01:03:09;;;;;;;27.27;13.60;;;11.60;48.40;;;;;;5050566;28;20537;-87
2021/12/07 01:05:39;;;;;;;27.63;15.20;;;11.60;48.40;;;;;;5051073;28;20431;-87
2021/12/07 01:24:42;;;;;;;23.53;14.23;;;11.60;48.40;;;;;;5052463;28;20485;-86
2021/12/07 01:27:14;;;;;;;26.47;14.20;;;11.60;48.50;;;;;;5050472;28;20474;-87
2021/12/07 01:29:45;;;;;;;30.33;14.97;;;11.60;48.60;;;;;;5049708;28;20521;-87
2021/12/07 01:32:26;;;;;;;23.70;14.17;;;11.60;48.40;;;;;;5050319;28;20462;-87
2021/12/07 01:37:54;;;;;;;24.07;13.40;;;11.70;48.40;;;;;;5041504;28;20550;-87
2021/12/07 01:40:39;;;;;;;23.17;14.40;;;11.70;48.40;;;;;;5050584;28;20588;-87
2021/12/07 01:52:06;;;;;;;28.67;14.63;;;11.70;48.60;;;;;;5051714;28;20594;-86
2021/12/07 02:00:08;;;;;;;21.80;13.67;;;11.70;48.60;;;;;;5051488;28;20547;-86
2021/12/07 02:02:37;;;;;;;24.63;15.07;;;11.70;48.60;;;;;;5051428;28;20528;-86
2021/12/07 02:05:06;;;;;;;21.60;13.63;;;11.80;48.20;;;;;;5050915;28;20445;-86
2021/12/07 02:07:34;;;;;;;24.63;15.07;;;11.80;48.60;;;;;;5051957;28;20475;-87
2021/12/07 02:10:07;;;;;;;26.73;15.80;;;11.80;48.40;;;;;;5048401;28;20450;-87
2021/12/07 02:12:42;;;;;;;22.57;14.73;;;11.80;48.90;;;;;;5049699;28;20508;-87
2021/12/07 02:15:10;;;;;;;27.00;14.63;;;11.80;48.70;;;;;;5050134;28;20933;-87
2021/12/07 02:17:40;;;;;;;24.90;14.80;;;11.80;48.60;;;;;;5052127;28;20540;-86
2021/12/07 02:20:09;;;;;;;24.90;14.30;;;11.70;48.60;;;;;;5049409;28;20451;-86
2021/12/07 02:22:38;;;;;;;26.80;15.03;;;11.80;48.90;;;;;;5050163;28;20476;-86
2021/12/07 02:25:07;;;;;;;26.43;15.30;;;11.80;48.10;;;;;;5050729;28;20499;-87
2021/12/07 02:27:35;;;;;;;23.47;15.40;;;11.80;48.90;;;;;;5051033;28;20538;-87
2021/12/07 02:30:04;;;;;;;21.20;14.13;;;11.80;49.20;;;;;;5051474;28;20442;-87
2021/12/07 02:32:32;;;;;;;22.20;13.90;;;11.80;48.40;;;;;;5049635;28;20510;-86
2021/12/07 02:35:56;;;;;;;23.93;14.20;;;11.70;49.10;;;;;;5047598;28;20529;-87
2021/12/07 02:38:48;;;;;;;23.63;14.23;;;11.70;49.20;;;;;;5051103;28;20434;-87
2021/12/07 02:41:16;;;;;;;26.77;16.13;;;11.70;49.20;;;;;;5048458;28;20474;-87
2021/12/07 02:43:44;;;;;;;24.67;15.70;;;11.70;49.30;;;;;;5049231;28;20526;-87
2021/12/07 02:46:13;;;;;;;26.10;15.90;;;11.70;49.60;;;;;;5049375;28;20465;-87
2021/12/07 02:48:41;;;;;;;26.27;16.33;;;11.70;49.00;;;;;;5050131;28;20430;-87
2021/12/07 02:51:09;;;;;;;29.07;15.87;;;11.70;49.30;;;;;;5049922;28;20454;-87
2021/12/07 02:53:37;;;;;;;24.10;15.20;;;11.70;49.80;;;;;;5049683;28;20446;-86
2021/12/07 02:56:08;;;;;;;26.30;16.03;;;11.70;49.50;;;;;;5049968;28;20465;-86
2021/12/07 02:58:36;;;;;;;27.90;16.00;;;11.70;49.30;;;;;;5048105;28;20524;-86
2021/12/07 03:01:10;;;;;;;24.00;14.97;;;11.70;49.70;;;;;;5048389;28;20462;-87
2021/12/07 03:03:48;;;;;;;26.33;15.67;;;11.60;49.60;;;;;;5049693;28;20527;-87
2021/12/07 03:06:22;;;;;;;24.77;14.83;;;11.60;49.30;;;;;;5050310;28;20449;-86
2021/12/07 03:09:30;;;;;;;25.07;15.90;;;11.60;49.70;;;;;;5049811;28;20504;-87
2021/12/07 03:28:37;;;;;;;26.50;16.00;;;11.30;50.40;;;;;;5042372;28;20522;-87
2021/12/07 03:31:05;;;;;;;26.90;16.17;;;11.40;50.20;;;;;;5054688;28;20435;-86
2021/12/07 03:33:33;;;;;;;30.60;17.70;;;11.30;50.80;;;;;;5054346;28;20489;-87
2021/12/07 03:36:02;;;;;;;29.37;16.87;;;11.30;51.00;;;;;;5057404;28;20426;-86
2021/12/07 03:38:30;;;;;;;30.30;16.70;;;11.40;50.70;;;;;;5056172;28;20474;-86
2021/12/07 03:40:58;;;;;;;26.80;15.73;;;11.40;50.90;;;;;;5054610;28;20546;-86
2021/12/07 03:43:25;;;;;;;27.20;16.47;;;11.40;50.80;;;;;;5054825;28;20549;-86
2021/12/07 03:45:55;;;;;;;28.17;16.97;;;11.40;50.90;;;;;;5054078;28;20478;-87
2021/12/07 03:48:23;;;;;;;28.00;17.03;;;11.50;50.50;;;;;;5060227;28;20449;-86
2021/12/07 03:50:51;;;;;;;29.73;17.10;;;11.50;50.40;;;;;;5055846;28;20474;-87
2021/12/07 03:53:19;;;;;;;29.60;16.97;;;11.50;50.60;;;;;;5053086;28;20477;-87
2021/12/07 03:55:47;;;;;;;31.40;17.60;;;11.40;50.30;;;;;;5053548;28;20476;-86
2021/12/07 03:58:15;;;;;;;33.13;17.43;;;11.40;50.60;;;;;;5055993;28;20497;-87
2021/12/07 04:00:45;;;;;;;25.27;15.13;;;11.40;50.30;;;;;;5059102;28;20496;-86
2021/12/07 04:03:15;;;;;;;27.57;16.80;;;11.40;50.60;;;;;;5056579;28;20485;-87
2021/12/07 04:05:47;;;;;;;28.17;15.37;;;11.40;50.50;;;;;;5053974;28;20485;-87
2021/12/07 04:08:16;;;;;;;26.13;16.20;;;11.40;50.50;;;;;;5054474;28;20447;-86
2021/12/07 04:10:44;;;;;;;29.50;16.77;;;11.40;50.60;;;;;;5057161;28;20461;-86
2021/12/07 04:13:12;;;;;;;30.17;18.10;;;11.40;49.60;;;;;;5055887;28;20478;-86
2021/12/07 04:15:41;;;;;;;29.97;15.90;;;11.50;50.70;;;;;;5054876;28;20435;-87
2021/12/07 04:18:09;;;;;;;28.50;16.13;;;11.40;50.50;;;;;;5055405;28;20937;-86
2021/12/07 04:20:38;;;;;;;28.80;16.40;;;11.40;50.50;;;;;;5052513;28;20442;-87
2021/12/07 04:23:06;;;;;;;24.50;14.80;;;11.40;50.60;;;;;;5042532;28;20552;-87
2021/12/07 04:25:34;;;;;;;30.83;16.27;;;11.40;50.40;;;;;;5049453;28;20485;-87
2021/12/07 04:28:02;;;;;;;24.50;14.90;;;11.50;50.60;;;;;;5054175;28;20435;-86
2021/12/07 04:30:31;;;;;;;27.80;15.87;;;11.50;50.40;;;;;;5054102;28;20453;-87
2021/12/07 04:33:00;;;;;;;40.07;16.40;;;11.50;49.90;;;;;;5053064;28;20512;-86
2021/12/07 04:35:28;;;;;;;27.40;16.00;;;11.50;50.30;;;;;;5055569;28;20461;-86
2021/12/07 04:37:58;;;;;;;28.17;16.67;;;11.50;50.60;;;;;;5059817;28;20586;-86
2021/12/07 04:40:27;;;;;;;29.80;17.30;;;11.60;50.10;;;;;;5058923;28;20452;-86
2021/12/07 04:42:55;;;;;;;28.00;16.63;;;11.60;49.40;;;;;;5060073;28;20458;-86
2021/12/07 04:45:32;;;;;;;29.30;16.90;;;11.50;49.60;;;;;;5056985;28;20526;-87
2021/12/07 04:48:29;;;;;;;28.77;15.27;;;11.50;50.00;;;;;;5056080;28;20414;-86
2021/12/07 04:59:20;;;;;;;29.10;16.20;;;11.30;50.60;;;;;;5061742;28;20455;-86
2021/12/07 05:01:48;;;;;;;27.50;16.97;;;11.30;50.60;;;;;;5054245;28;20510;-86
2021/12/07 05:04:23;;;;;;;27.00;15.53;;;11.40;49.90;;;;;;5064365;28;20451;-87
2021/12/07 05:06:55;;;;;;;25.80;15.53;;;11.40;50.60;;;;;;5055950;28;20449;-86
2021/12/07 05:09:39;;;;;;;27.60;15.90;;;11.30;50.60;;;;;;5057366;28;20466;-86
2021/12/07 05:12:27;;;;;;;30.57;16.63;;;11.40;50.80;;;;;;5063350;28;20423;-87
2021/12/07 05:15:03;;;;;;;30.63;17.57;;;11.30;50.60;;;;;;5062348;28;20519;-86
2021/12/07 05:18:00;;;;;;;30.40;17.43;;;11.40;50.40;;;;;;5064440;28;20473;-87
2021/12/07 05:34:32;;;;;;;26.57;15.83;;;11.40;50.80;;;;;;5065144;28;20426;-86
2021/12/07 05:34:51;;;;;;;31.57;17.83;;;11.40;50.30;;;;;;5045393;28;20929;-86
2021/12/07 05:40:08;;;;;;;29.50;17.30;;;11.40;50.90;;;;;;5062661;28;20430;-86
2021/12/07 05:42:38;;;;;;;29.70;16.87;;;11.40;50.60;;;;;;5060371;28;20481;-86
2021/12/07 05:45:08;;;;;;;29.37;18.33;;;11.30;51.10;;;;;;5061378;28;20450;-86
2021/12/07 05:47:35;;;;;;;30.20;16.63;;;11.40;50.30;;;;;;5048316;28;20467;-86
2021/12/07 05:50:27;;;;;;;27.73;16.40;;;11.30;51.00;;;;;;5051151;28;20485;-86
2021/12/07 05:53:00;;;;;;;31.43;17.70;;;11.30;50.90;;;;;;5058814;28;20497;-86
2021/12/07 05:55:29;;;;;;;33.10;18.47;;;11.40;50.60;;;;;;5061548;28;20439;-86
2021/12/07 05:57:59;;;;;;;26.77;15.83;;;11.30;51.00;;;;;;5067167;28;20496;-84
2021/12/07 06:00:28;;;;;;;29.80;17.93;;;11.20;51.20;;;;;;5068031;28;20447;-84
2021/12/07 06:02:58;;;;;;;31.63;17.13;;;11.30;51.40;;;;;;5065324;28;20497;-85
2021/12/07 06:05:30;;;;;;;32.97;18.43;;;11.30;51.00;;;;;;5061883;28;20546;-85
2021/12/07 06:08:06;;;;;;;34.97;19.03;;;11.30;51.40;;;;;;5058198;28;20427;-85
2021/12/07 06:10:34;;;;;;;33.23;18.30;;;11.40;50.60;;;;;;5056138;28;20435;-85
2021/12/07 06:20:26;;;;;;;36.20;18.47;;;11.40;50.60;;;;;;4933399;28;20434;-85
2021/12/07 06:23:11;;;;;;;34.23;19.43;;;11.30;51.30;;;;;;5052905;28;20489;-86
2021/12/07 06:25:40;;;;;;;32.03;18.80;;;11.40;51.30;;;;;;5057191;28;20474;-85
2021/12/07 06:28:09;;;;;;;36.80;18.30;;;11.40;50.80;;;;;;5058434;28;20462;-85
2021/12/07 06:30:41;;;;;;;36.17;18.03;;;11.40;51.10;;;;;;5056861;28;20474;-85
2021/12/07 06:33:09;;;;;;;32.23;19.17;;;11.30;51.30;;;;;;5056335;28;20466;-85
2021/12/07 06:35:37;;;;;;;32.70;19.30;;;11.40;50.60;;;;;;5055903;28;20426;-85
2021/12/07 06:38:06;;;;;;;33.80;18.83;;;11.30;51.00;;;;;;5057623;28;20557;-85
2021/12/07 06:40:34;;;;;;;33.47;19.30;;;11.30;51.10;;;;;;5058058;28;20441;-85
2021/12/07 06:43:02;;;;;;;34.13;18.33;;;11.30;51.40;;;;;;5052956;28;20469;-85
2021/12/07 06:45:31;;;;;;;31.17;18.80;;;11.30;51.80;;;;;;5059432;28;20427;-85
2021/12/07 06:47:59;;;;;;;27.80;16.70;;;11.30;51.70;;;;;;5058502;28;20430;-85
2021/12/07 06:50:27;;;;;;;30.30;19.60;;;11.30;51.80;;;;;;5056445;28;20454;-85
2021/12/07 06:52:55;;;;;;;33.60;18.93;;;11.40;50.80;;;;;;5058154;28;20470;-85
2021/12/07 06:55:23;;;;;;;31.20;19.37;;;11.40;51.50;;;;;;5057731;28;20457;-85
2021/12/07 06:57:52;;;;;;;30.03;17.90;;;11.40;50.70;;;;;;5055236;28;20473;-85
2021/12/07 07:00:20;;;;;;;31.33;17.80;;;11.40;51.60;;;;;;5055886;28;20447;-85
2021/12/07 07:02:49;;;;;;;31.73;18.23;;;11.30;51.60;;;;;;5060985;28;20470;-85
2021/12/07 07:05:18;;;;;;;32.77;18.80;;;11.40;51.50;;;;;;5062291;28;20462;-85
2021/12/07 07:07:46;;;;;;;29.90;17.80;;;11.50;51.40;;;;;;5063835;28;20497;-85
2021/12/07 07:10:16;;;;;;;30.30;19.00;;;11.40;51.60;;;;;;5064108;28;20431;-85
2021/12/07 07:12:44;;;;;;;30.83;18.90;;;11.50;50.50;;;;;;5065725;28;20489;-85
2021/12/07 07:15:12;;;;;;;28.77;16.60;;;11.50;51.30;;;;;;5062146;28;20461;-85
2021/12/07 07:17:40;;;;;;;32.23;18.50;;;11.50;51.60;;;;;;5059920;28;20454;-85
2021/12/07 07:20:12;;;;;;;32.63;17.30;;;11.40;51.50;;;;;;5063059;28;20909;-85
2021/12/07 07:22:40;;;;;;;31.17;17.60;;;11.40;51.90;;;;;;5063547;28;20454;-85
2021/12/07 07:25:10;;;;;;;31.37;18.47;;;11.40;51.60;;;;;;5063667;28;20430;-85
2021/12/07 07:27:37;;;;;;;30.87;17.50;;;11.50;51.10;;;;;;5063499;28;20960;-85
2021/12/07 07:30:06;;;;;;;35.03;19.00;;;11.40;51.80;;;;;;5062755;28;20446;-85
2021/12/07 07:32:34;;;;;;;31.83;18.80;;;11.50;52.00;;;;;;5060637;28;20497;-85
2021/12/07 07:35:02;;;;;;;29.23;16.87;;;11.50;51.60;;;;;;5063581;28;20423;-85
2021/12/07 07:37:31;;;;;;;30.20;17.80;;;11.50;51.60;;;;;;5062788;28;20427;-85
2021/12/07 07:40:00;;;;;;;35.07;18.97;;;11.50;51.90;;;;;;5062220;28;20562;-85
2021/12/07 07:42:33;;;;;;;30.37;17.97;;;11.50;52.80;;;;;;5061991;28;20448;-85
2021/12/07 07:45:01;;;;;;;36.97;18.40;;;11.60;51.80;;;;;;5062705;28;20448;-85
2021/12/07 07:47:29;;;;;;;31.17;18.60;;;11.60;51.10;;;;;;5063294;28;20458;-85
2021/12/07 07:49:59;;;;;;;29.23;17.33;;;11.50;51.60;;;;;;5059547;28;20442;-85
2021/12/07 07:52:27;;;;;;;33.30;18.20;;;11.50;52.00;;;;;;5062840;28;20478;-85
2021/12/07 07:54:57;;;;;;;30.90;17.20;;;11.50;51.90;;;;;;5062544;28;20473;-85
2021/12/07 07:57:25;;;;;;;30.30;17.37;;;11.50;52.30;;;;;;5062606;28;20434;-85
2021/12/07 07:59:53;;;;;;;26.23;15.80;;;11.40;52.20;;;;;;5061393;28;20482;-85
2021/12/07 08:02:21;;;;;;;27.83;15.90;;;11.50;52.40;;;;;;5059294;28;20505;-85
2021/12/07 08:04:49;;;;;;;30.60;17.57;;;11.60;52.50;;;;;;5058355;28;20445;-85
2021/12/07 08:07:17;;;;;;;31.97;17.03;;;11.60;52.40;;;;;;5053619;28;20541;-85
2021/12/07 08:09:45;;;;;;;27.27;16.87;;;11.70;52.30;;;;;;5058616;28;20435;-85
2021/12/07 08:12:15;;;;;;;25.90;14.97;;;11.70;51.90;;;;;;5059102;28;20473;-85
2021/12/07 08:14:43;;;;;;;25.90;15.73;;;11.70;52.00;;;;;;5055717;28;20471;-85
2021/12/07 08:17:11;;;;;;;26.93;15.70;;;11.80;51.60;;;;;;5059035;28;20453;-85
2021/12/07 08:19:40;;;;;;;36.23;15.90;;;11.80;51.80;;;;;;5058885;28;20488;-85
2021/12/07 08:22:13;;;;;;;27.20;14.97;;;11.80;51.40;;;;;;5059801;28;20554;-85
2021/12/07 08:24:42;;;;;;;27.23;15.63;;;11.70;51.90;;;;;;5057269;28;20458;-85
2021/12/07 08:27:10;;;;;;;23.40;15.40;;;11.70;52.30;;;;;;5059193;28;20431;-85
2021/12/07 08:29:57;;;;;;;26.37;15.40;;;11.70;51.70;;;;;;5058476;28;20446;-85
2021/12/07 08:32:25;;;;;;;26.07;15.53;;;11.70;51.60;;;;;;5058601;28;20523;-85
2021/12/07 08:34:53;;;;;;;24.13;14.00;;;11.70;51.80;;;;;;5060014;28;20450;-85
2021/12/07 08:37:21;;;;;;;23.50;14.00;;;11.70;52.30;;;;;;5059151;28;20462;-85
2021/12/07 08:39:49;;;;;;;24.53;13.93;;;11.70;52.20;;;;;;5058139;28;20497;-85
2021/12/07 08:42:17;;;;;;;25.70;14.63;;;11.70;52.20;;;;;;5054741;28;20473;-85
2021/12/07 08:44:45;;;;;;;24.90;14.80;;;11.70;52.60;;;;;;5059235;28;20459;-85
2021/12/07 08:47:14;;;;;;;25.50;14.93;;;11.60;52.40;;;;;;5056219;28;20434;-85
2021/12/07 08:50:05;;;;;;;24.10;15.70;;;11.60;52.30;;;;;;5055539;28;20545;-85
2021/12/07 08:52:33;;;;;;;24.27;13.63;;;11.70;52.60;;;;;;5053759;28;20454;-85
2021/12/07 09:00:33;;;;;;;23.40;15.10;;;11.80;52.00;;;;;;5058482;28;20474;-85
2021/12/07 09:03:02;;;;;;;20.10;12.60;;;11.70;52.60;;;;;;5059810;28;20458;-85
2021/12/07 09:05:30;;;;;;;23.93;13.43;;;11.80;52.70;;;;;;5061081;28;20458;-85
2021/12/07 09:07:59;;;;;;;22.30;13.90;;;11.80;53.30;;;;;;5060596;28;20446;-85
2021/12/07 09:10:26;;;;;;;27.73;13.73;;;11.80;52.70;;;;;;5060777;28;20431;-85
2021/12/07 09:12:54;;;;;;;26.00;14.93;;;11.80;52.90;;;;;;5055173;28;20466;-85
2021/12/07 09:15:22;;;;;;;24.73;13.63;;;11.90;52.50;;;;;;5056472;28;20471;-85
2021/12/07 09:17:50;;;;;;;23.63;13.87;;;11.90;51.90;;;;;;5059474;28;20431;-85
2021/12/07 09:20:20;;;;;;;22.40;13.27;;;11.90;52.40;;;;;;5059363;28;20534;-85
2021/12/07 09:22:48;;;;;;;23.57;14.20;;;12.00;52.80;;;;;;5058125;28;20454;-85
2021/12/07 09:25:17;;;;;;;23.97;12.60;;;12.00;52.30;;;;;;5057549;28;20477;-85
2021/12/07 09:27:45;;;;;;;22.53;13.07;;;12.00;52.50;;;;;;5059004;28;20430;-85
2021/12/07 09:30:15;;;;;;;23.97;13.80;;;12.10;52.60;;;;;;5055940;28;20438;-85
2021/12/07 09:32:43;;;;;;;26.93;15.03;;;12.20;51.60;;;;;;5057840;28;20467;-85
2021/12/07 09:35:11;;;;;;;21.27;13.30;;;12.20;52.10;;;;;;5057113;28;20466;-85
2021/12/07 09:37:41;;;;;;;22.47;12.53;;;12.20;52.60;;;;;;5057606;28;20434;-85
2021/12/07 09:40:11;;;;;;;26.80;15.73;;;12.20;52.40;;;;;;5057460;28;20502;-84
2021/12/07 09:42:39;;;;;;;28.70;13.23;;;12.30;51.90;;;;;;5055579;28;20512;-85
2021/12/07 09:45:07;;;;;;;25.23;13.93;;;12.30;52.10;;;;;;5058105;28;20450;-84
2021/12/07 09:47:36;;;;;;;26.97;13.33;;;12.30;51.60;;;;;;5054230;28;20459;-84
2021/12/07 09:50:10;;;;;;;23.17;14.10;;;12.40;51.30;;;;;;5055237;28;20484;-84
2021/12/07 09:52:40;;;;;;;23.83;13.73;;;12.30;52.50;;;;;;5054226;28;20530;-84
2021/12/07 09:55:09;;;;;;;25.80;14.23;;;12.30;52.10;;;;;;5056521;28;20815;-85
2021/12/07 09:57:37;;;;;;;26.50;14.70;;;12.30;51.80;;;;;;5051874;28;20462;-85
2021/12/07 10:00:08;;;;;;;26.17;15.30;;;12.20;52.00;;;;;;5046850;28;20467;-85
2021/12/07 10:02:53;;;;;;;23.40;13.70;;;12.20;52.10;;;;;;5050831;28;20501;-86
2021/12/07 10:05:21;;;;;;;28.77;14.30;;;12.20;52.70;;;;;;5052386;28;20474;-85
2021/12/07 10:08:08;;;;;;;24.63;14.50;;;12.20;52.40;;;;;;5054312;28;20450;-85
2021/12/07 10:10:38;;;;;;;22.63;12.87;;;12.20;52.50;;;;;;5052582;28;20485;-87
2021/12/07 10:13:21;;;;;;;27.93;13.83;;;12.20;52.70;;;;;;5052441;28;20455;-86
2021/12/07 10:15:53;;;;;;;27.03;14.27;;;12.30;52.90;;;;;;5050430;28;20428;-86
2021/12/07 10:18:26;;;;;;;25.47;13.67;;;12.50;51.70;;;;;;5053133;28;20423;-86
2021/12/07 10:21:23;;;;;;;23.77;14.53;;;12.50;51.20;;;;;;5052508;28;20465;-86
2021/12/07 10:24:06;;;;;;;30.53;15.33;;;12.50;51.90;;;;;;5050953;28;20478;-86
2021/12/07 10:26:37;;;;;;;23.83;14.13;;;12.50;52.10;;;;;;5052900;28;20461;-86
2021/12/07 10:29:11;;;;;;;29.27;15.63;;;12.50;51.60;;;;;;5052196;28;20434;-86
2021/12/07 10:31:40;;;;;;;27.67;14.60;;;12.50;51.80;;;;;;5052039;28;20470;-86
2021/12/07 10:34:18;;;;;;;29.30;14.87;;;12.50;51.80;;;;;;5052120;28;20473;-86
2021/12/07 10:36:49;;;;;;;28.13;14.03;;;12.50;52.50;;;;;;5052360;28;20442;-86
2021/12/07 10:39:20;;;;;;;32.00;14.07;;;12.50;51.80;;;;;;5052489;28;20434;-87
2021/12/07 10:41:49;;;;;;;24.77;13.77;;;12.50;51.70;;;;;;5050795;28;20535;-86
2021/12/07 10:44:17;;;;;;;25.13;13.97;;;12.50;52.60;;;;;;5051036;28;20454;-86
2021/12/07 10:46:48;;;;;;;30.50;14.93;;;12.50;51.90;;;;;;5052264;28;20532;-86
2021/12/07 10:49:34;;;;;;;29.27;15.87;;;12.60;51.90;;;;;;5052153;28;20427;-86
2021/12/07 10:52:12;;;;;;;24.73;13.97;;;12.50;52.40;;;;;;5052250;28;20925;-87
2021/12/07 10:54:44;;;;;;;25.57;14.77;;;12.50;52.30;;;;;;5051353;28;20442;-86
2021/12/07 10:57:14;;;;;;;27.97;15.53;;;12.60;52.30;;;;;;5049967;28;20493;-86
2021/12/07 10:59:51;;;;;;;29.60;14.83;;;12.50;51.30;;;;;;5052436;28;20442;-86
2021/12/07 11:02:30;;;;;;;31.30;15.00;;;12.50;51.70;;;;;;5052104;28;20466;-86
2021/12/07 11:04:59;;;;;;;34.00;16.17;;;12.50;52.50;;;;;;5053130;28;20521;-86
2021/12/07 11:07:27;;;;;;;29.87;14.67;;;12.50;51.90;;;;;;5052656;28;20497;-86
2021/12/07 11:10:04;;;;;;;28.50;15.10;;;12.50;52.30;;;;;;5055236;28;20991;-84
2021/12/07 11:12:40;;;;;;;24.90;14.20;;;12.50;52.10;;;;;;5052883;28;20442;-86
2021/12/07 11:15:18;;;;;;;26.30;15.20;;;12.50;51.90;;;;;;5051661;28;20480;-86
2021/12/07 11:17:55;;;;;;;26.53;15.20;;;12.50;52.70;;;;;;5051825;28;21001;-86
2021/12/07 11:20:32;;;;;;;25.93;14.60;;;12.60;52.20;;;;;;5044640;28;20478;-87
2021/12/07 11:23:08;;;;;;;26.83;14.47;;;12.60;52.20;;;;;;5051328;28;20470;-87
2021/12/07 11:31:16;;;;;;;26.30;14.20;;;12.60;52.20;;;;;;5049737;28;20496;-86
2021/12/07 11:33:45;;;;;;;30.10;15.03;;;12.60;52.70;;;;;;5051752;28;20526;-86
2021/12/07 11:36:21;;;;;;;24.00;14.80;;;12.70;51.50;;;;;;5051408;28;20438;-86
2021/12/07 11:38:49;;;;;;;27.43;15.80;;;12.60;52.60;;;;;;5052455;28;20449;-85
2021/12/07 11:41:21;;;;;;;29.63;15.13;;;12.70;51.60;;;;;;5051876;28;20561;-86
2021/12/07 11:43:57;;;;;;;26.00;14.67;;;12.70;52.60;;;;;;5052027;28;20517;-86
2021/12/07 11:46:26;;;;;;;31.83;14.60;;;12.70;52.80;;;;;;5049146;28;20474;-86
2021/12/07 11:49:12;;;;;;;25.10;14.40;;;12.70;51.90;;;;;;5052305;28;20541;-86
2021/12/07 11:51:41;;;;;;;26.97;14.00;;;12.70;52.00;;;;;;5052508;28;21002;-86
2021/12/07 11:54:09;;;;;;;28.70;15.10;;;12.60;52.80;;;;;;5056275;28;20494;-86
2021/12/07 11:56:38;;;;;;;23.00;13.33;;;12.70;52.50;;;;;;5054795;28;20785;-86
2021/12/07 11:59:09;;;;;;;27.37;15.10;;;12.80;52.60;;;;;;5056999;28;20438;-86
2021/12/07 12:01:43;;;;;;;25.73;14.10;;;12.90;53.20;;;;;;5057046;28;20470;-85
2021/12/07 12:04:12;;;;;;;25.57;15.30;;;13.30;53.20;;;;;;5059276;28;20470;-85
2021/12/07 12:06:44;;;;;;;27.07;14.20;;;13.60;52.60;;;;;;5057499;28;20462;-84
2021/12/07 12:09:13;;;;;;;24.27;13.70;;;13.80;51.40;;;;;;5057181;28;20449;-85
2021/12/07 12:15:02;;;;;;;29.23;14.10;;;14.00;50.80;;;;;;5055490;28;20940;-86
2021/12/07 12:17:38;;;;;;;22.97;13.70;;;14.00;51.30;;;;;;5059955;28;20872;-85
2021/12/07 12:20:19;;;;;;;25.67;14.60;;;14.00;50.80;;;;;;5062509;28;20995;-85
2021/12/07 12:23:03;;;;;;;22.73;13.83;;;14.10;50.20;;;;;;5062042;28;20505;-85
2021/12/07 12:25:41;;;;;;;27.70;14.03;;;14.00;51.20;;;;;;5056937;28;20470;-86
2021/12/07 12:32:29;;;;;;;20.33;12.70;;;14.20;51.10;;;;;;5032320;28;20584;-85
2021/12/07 12:34:57;;;;;;;28.37;14.13;;;14.50;51.80;;;;;;5051663;28;20454;-84
2021/12/07 12:37:26;;;;;;;22.87;13.67;;;14.80;51.10;;;;;;5062105;28;20501;-84
2021/12/07 12:39:55;;;;;;;20.47;12.20;;;15.10;51.40;;;;;;5056653;28;20447;-84
2021/12/07 12:42:28;;;;;;;22.10;12.30;;;15.40;50.80;;;;;;5060469;28;20494;-84
2021/12/07 12:48:58;;;;;;;24.40;12.23;;;15.70;49.80;;;;;;4977274;28;20493;-83
2021/12/07 12:51:27;;;;;;;26.27;12.90;;;15.70;49.90;;;;;;5036096;28;20455;-84
2021/12/07 12:53:55;;;;;;;21.47;11.60;;;15.80;49.90;;;;;;5052676;28;20472;-84
2021/12/07 12:56:24;;;;;;;19.40;11.67;;;16.00;49.50;;;;;;5056745;28;20510;-84
2021/12/07 12:59:04;;;;;;;26.50;11.70;;;16.30;49.60;;;;;;5055220;28;20455;-85
2021/12/07 13:01:32;;;;;;;27.93;12.77;;;16.40;49.10;;;;;;5047651;28;20482;-84
2021/12/07 13:04:06;;;;;;;25.77;12.03;;;16.60;49.10;;;;;;5050037;28;20482;-83
2021/12/07 13:10:18;;;;;;;15.90;10.60;;;16.80;48.40;;;;;;5011136;28;20453;-84
2021/12/07 13:13:24;;;;;;;16.23;10.43;;;16.90;48.30;;;;;;5049347;28;20470;-84
2021/12/07 13:15:52;;;;;;;20.73;10.70;;;17.10;47.40;;;;;;5055526;28;20455;-84
2021/12/07 13:21:37;;;;;;;17.03;9.77;;;17.00;46.90;;;;;;4984298;28;20465;-85
2021/12/07 13:24:07;;;;;;;19.30;10.07;;;16.90;47.40;;;;;;4986961;28;20523;-86
2021/12/07 13:26:38;;;;;;;24.27;10.13;;;16.80;46.00;;;;;;4986336;28;20501;-85
2021/12/07 13:29:21;;;;;;;18.13;10.20;;;16.70;46.40;;;;;;4986789;28;20515;-84
2021/12/07 13:31:51;;;;;;;18.03;9.63;;;16.50;46.60;;;;;;4987736;28;20441;-84
2021/12/07 13:34:25;;;;;;;20.07;9.97;;;16.40;46.50;;;;;;4990011;28;20580;-84
2021/12/07 13:37:02;;;;;;;18.03;10.13;;;16.20;46.80;;;;;;4986937;28;20469;-84
2021/12/07 13:40:01;;;;;;;22.27;11.00;;;16.00;47.90;;;;;;4990088;28;20540;-84
2021/12/07 13:42:29;;;;;;;18.63;9.80;;;15.90;47.00;;;;;;4991278;28;20481;-84
2021/12/07 13:45:01;;;;;;;27.23;10.70;;;15.80;47.50;;;;;;4983660;28;20455;-84
2021/12/07 13:47:30;;;;;;;16.47;9.93;;;15.60;48.40;;;;;;4988090;28;20462;-84
2021/12/07 13:49:59;;;;;;;17.33;10.87;;;15.60;47.60;;;;;;4993240;28;20471;-84
2021/12/07 13:52:31;;;;;;;22.00;9.70;;;15.40;48.20;;;;;;4994209;28;20557;-84
2021/12/07 13:55:00;;;;;;;13.40;9.00;;;15.50;48.50;;;;;;4988723;28;20449;-83
2021/12/07 13:57:29;;;;;;;18.73;10.10;;;15.30;48.50;;;;;;5017745;28;20435;-83
2021/12/07 13:59:59;;;;;;;20.80;10.50;;;15.30;48.30;;;;;;5054181;28;20869;-84
2021/12/07 14:02:27;;;;;;;17.13;9.70;;;15.30;48.40;;;;;;5048590;28;20529;-84
2021/12/07 14:05:04;;;;;;;12.97;9.07;;;15.20;48.10;;;;;;5049550;28;20534;-85
2021/12/07 14:07:34;;;;;;;17.20;9.73;;;15.20;48.20;;;;;;5049996;28;21054;-83
2021/12/07 14:10:11;;;;;;;15.90;9.97;;;15.10;48.80;;;;;;5052327;28;20442;-84
2021/12/07 14:12:39;;;;;;;18.30;9.53;;;15.10;48.80;;;;;;5059117;28;20458;-84
2021/12/07 14:15:20;;;;;;;16.10;9.90;;;15.00;49.00;;;;;;5062357;28;20455;-84
2021/12/07 14:18:10;;;;;;;23.13;10.00;;;14.90;48.60;;;;;;5060147;28;20446;-84
2021/12/07 14:20:39;;;;;;;17.43;10.10;;;14.90;49.00;;;;;;5047999;28;20460;-83
2021/12/07 14:23:19;;;;;;;18.13;10.60;;;14.90;49.00;;;;;;5051977;28;20474;-84
2021/12/07 14:25:54;;;;;;;14.63;8.57;;;14.80;48.80;;;;;;5049336;28;20450;-83
2021/12/07 14:28:30;;;;;;;22.10;9.80;;;14.70;49.40;;;;;;5047251;28;20459;-84
2021/12/07 14:31:01;;;;;;;17.40;9.40;;;14.60;49.20;;;;;;5041044;28;20446;-83
2021/12/07 14:33:33;;;;;;;22.67;9.50;;;14.50;49.60;;;;;;5048436;28;20557;-84
2021/12/07 14:36:04;;;;;;;20.20;9.30;;;14.50;49.80;;;;;;5052815;28;20989;-83
2021/12/07 14:38:34;;;;;;;19.10;9.63;;;14.50;49.30;;;;;;5048330;28;20489;-83
2021/12/07 14:41:06;;;;;;;17.53;8.37;;;14.40;49.80;;;;;;5041807;28;20500;-83